Time;durP1;ratioP1;P1;durP2;ratioP2;P2;SDS_P1;SDS_P2;PMS_P1;PMS_P2;Temp;Humidity;BMP_temperature;BMP_pressure;BME280_temperature;BME280_humidity;BME280_pressure;Samples;Min_cycle;Max_cycle;Signal;HPM_P1;HPM_P2
2021/06/09 00:01:22;;;;;;;27.30;24.37;;;15.30;99.90;;;;;;4997938;28;20528;-55
2021/06/09 00:03:49;;;;;;;26.40;24.10;;;15.10;99.90;;;;;;4989657;28;20482;-56
2021/06/09 00:06:17;;;;;;;27.60;24.77;;;15.10;99.90;;;;;;4998344;28;20995;-50
2021/06/09 00:08:45;;;;;;;26.50;24.10;;;15.00;99.90;;;;;;4997858;28;20909;-52
2021/06/09 00:11:13;;;;;;;26.43;23.87;;;15.00;99.90;;;;;;4998297;28;20472;-52
2021/06/09 00:13:41;;;;;;;26.13;23.63;;;14.90;99.90;;;;;;4997920;28;20489;-46
2021/06/09 00:16:14;;;;;;;25.73;23.43;;;14.90;99.90;;;;;;4997942;28;20460;-48
2021/06/09 00:18:41;;;;;;;27.50;24.90;;;14.80;99.90;;;;;;4998138;28;20456;-46
2021/06/09 00:21:09;;;;;;;26.67;24.17;;;14.80;99.90;;;;;;4997426;28;20458;-46
2021/06/09 00:23:36;;;;;;;27.00;24.50;;;14.70;99.90;;;;;;4998142;28;20475;-48
2021/06/09 00:26:05;;;;;;;29.73;26.93;;;14.70;99.90;;;;;;4997725;28;20525;-46
2021/06/09 00:28:34;;;;;;;26.17;23.80;;;14.70;99.90;;;;;;4998056;28;20611;-47
2021/06/09 00:31:00;;;;;;;26.50;24.00;;;14.70;99.90;;;;;;4997398;28;20500;-46
2021/06/09 00:33:28;;;;;;;28.63;26.13;;;14.60;99.90;;;;;;4998201;28;20523;-46
2021/06/09 00:35:58;;;;;;;27.47;24.87;;;14.60;99.90;;;;;;4997971;28;20784;-46
2021/06/09 00:38:25;;;;;;;26.00;23.60;;;14.60;99.90;;;;;;4997321;28;20479;-48
2021/06/09 00:40:52;;;;;;;26.90;24.30;;;14.50;99.90;;;;;;4997712;28;20722;-50
2021/06/09 00:43:23;;;;;;;27.23;24.83;;;14.50;99.90;;;;;;5001361;28;20463;-47
2021/06/09 00:45:56;;;;;;;26.83;24.47;;;14.40;99.90;;;;;;5001154;28;20591;-53
2021/06/09 00:48:26;;;;;;;26.90;24.33;;;14.40;99.90;;;;;;5002031;28;20472;-54
2021/06/09 00:50:53;;;;;;;26.57;24.27;;;14.40;99.90;;;;;;5001541;28;20475;-50
2021/06/09 00:53:32;;;;;;;28.90;26.10;;;14.30;99.90;;;;;;5001715;28;20769;-52
2021/06/09 00:56:01;;;;;;;27.37;24.90;;;14.30;99.90;;;;;;5001289;28;20467;-50
2021/06/09 00:58:32;;;;;;;27.83;25.33;;;14.20;99.90;;;;;;5001687;28;20939;-55
2021/06/09 01:01:00;;;;;;;26.23;23.77;;;14.20;99.90;;;;;;5001349;28;20901;-53
2021/06/09 01:03:27;;;;;;;28.77;26.13;;;14.20;99.90;;;;;;5001657;28;20571;-52
2021/06/09 01:05:54;;;;;;;26.53;23.87;;;14.20;99.90;;;;;;4994735;28;20551;-49
2021/06/09 01:08:21;;;;;;;25.23;22.73;;;14.20;99.90;;;;;;4998233;28;20591;-46
2021/06/09 01:10:50;;;;;;;30.07;27.23;;;14.20;99.90;;;;;;5000949;28;20456;-46
2021/06/09 01:13:17;;;;;;;27.57;24.90;;;14.10;99.90;;;;;;5001218;28;20467;-46
2021/06/09 01:15:45;;;;;;;28.30;25.50;;;14.10;99.90;;;;;;5001259;28;20453;-46
2021/06/09 01:18:12;;;;;;;26.80;24.40;;;14.10;99.90;;;;;;5001515;28;20465;-46
2021/06/09 01:20:41;;;;;;;27.00;24.50;;;14.10;99.90;;;;;;5000543;28;20465;-46
2021/06/09 01:23:12;;;;;;;27.73;25.03;;;14.10;99.90;;;;;;5000965;28;20824;-48
2021/06/09 01:25:39;;;;;;;26.43;23.93;;;14.10;99.90;;;;;;5001162;28;20467;-46
2021/06/09 01:28:07;;;;;;;26.50;24.10;;;14.00;99.90;;;;;;5000507;28;20460;-48
2021/06/09 01:30:35;;;;;;;26.50;24.00;;;14.10;99.90;;;;;;5000974;28;20567;-47
2021/06/09 01:33:06;;;;;;;26.40;23.67;;;14.10;99.90;;;;;;5001057;28;20499;-50
2021/06/09 01:35:33;;;;;;;27.53;24.83;;;14.00;99.90;;;;;;5000998;28;20471;-52
2021/06/09 01:38:00;;;;;;;28.13;25.10;;;13.90;99.90;;;;;;4999909;28;20467;-49
2021/06/09 01:40:29;;;;;;;34.20;25.57;;;13.90;99.90;;;;;;5000491;28;20461;-47
2021/06/09 01:42:57;;;;;;;27.77;25.17;;;13.80;99.90;;;;;;5000590;28;20875;-52
2021/06/09 01:45:27;;;;;;;28.50;25.80;;;13.90;99.90;;;;;;5001010;28;20497;-51
2021/06/09 01:47:54;;;;;;;29.00;26.10;;;13.80;99.90;;;;;;5000032;28;20476;-47
2021/06/09 01:50:23;;;;;;;30.10;27.33;;;13.80;99.90;;;;;;5001064;28;20457;-54
2021/06/09 01:52:51;;;;;;;29.77;26.93;;;13.80;99.90;;;;;;5000349;28;20464;-55
2021/06/09 01:55:21;;;;;;;32.70;29.70;;;13.80;99.90;;;;;;5000279;28;20866;-56
2021/06/09 01:57:49;;;;;;;30.90;27.93;;;13.70;99.90;;;;;;5000144;28;21018;-54
2021/06/09 02:00:19;;;;;;;33.30;29.97;;;13.70;99.90;;;;;;4999979;28;20566;-56
2021/06/09 02:02:46;;;;;;;32.00;29.00;;;13.70;99.90;;;;;;4996014;28;20468;-54
2021/06/09 02:05:13;;;;;;;31.50;28.50;;;13.60;99.90;;;;;;4995079;28;20924;-47
2021/06/09 02:07:42;;;;;;;33.77;30.47;;;13.60;99.90;;;;;;4999246;28;20572;-46
2021/06/09 02:10:14;;;;;;;33.53;30.37;;;13.60;99.90;;;;;;4999595;28;20544;-46
2021/06/09 02:12:45;;;;;;;34.83;31.13;;;13.60;99.90;;;;;;4999719;28;20472;-47
2021/06/09 02:15:15;;;;;;;33.47;30.23;;;13.60;99.90;;;;;;5000447;28;20460;-46
2021/06/09 02:17:55;;;;;;;32.70;29.47;;;13.60;99.90;;;;;;5000212;28;20460;-48
2021/06/09 02:20:23;;;;;;;29.27;26.50;;;13.60;99.90;;;;;;4999949;28;20439;-49
2021/06/09 02:22:50;;;;;;;28.73;25.77;;;13.50;99.90;;;;;;4999303;28;20465;-49
2021/06/09 03:39:58;;;;;;;30.23;27.33;;;13.00;99.90;;;;;;5021127;23;20456;-53
2021/06/09 03:42:30;;;;;;;30.17;27.23;;;13.00;99.90;;;;;;4978972;28;20457;-52
2021/06/09 03:45:00;;;;;;;30.70;27.80;;;13.10;99.90;;;;;;4978818;28;20838;-49
2021/06/09 03:47:28;;;;;;;31.03;28.03;;;13.10;99.90;;;;;;4978733;28;20766;-50
2021/06/09 03:49:58;;;;;;;30.67;27.57;;;13.20;99.90;;;;;;4978711;28;20466;-49
2021/06/09 03:52:25;;;;;;;30.63;27.63;;;13.20;99.90;;;;;;4978906;28;20473;-48
2021/06/09 03:54:58;;;;;;;30.80;27.87;;;13.30;99.90;;;;;;4978191;28;20461;-51
2021/06/09 03:57:26;;;;;;;31.43;28.50;;;13.30;99.90;;;;;;4978481;28;20473;-56
2021/06/09 03:59:56;;;;;;;31.00;27.90;;;13.30;99.90;;;;;;4978553;28;20761;-57
2021/06/09 04:02:24;;;;;;;31.97;28.97;;;13.40;99.90;;;;;;4976572;28;20771;-54
2021/06/09 04:04:54;;;;;;;32.60;29.40;;;13.40;99.90;;;;;;4971826;28;20484;-57
2021/06/09 04:07:23;;;;;;;32.43;28.93;;;13.40;99.90;;;;;;4978002;28;20556;-57
2021/06/09 04:09:52;;;;;;;32.30;29.30;;;13.50;99.90;;;;;;4978186;28;20543;-55
2021/06/09 04:12:24;;;;;;;31.33;28.30;;;13.40;99.90;;;;;;4978062;28;20466;-57
2021/06/09 04:14:52;;;;;;;33.50;30.27;;;13.50;99.90;;;;;;4978225;28;20470;-54
2021/06/09 04:17:24;;;;;;;30.93;28.23;;;13.50;99.90;;;;;;4978003;28;20781;-53
2021/06/09 04:19:54;;;;;;;32.73;29.53;;;13.60;99.90;;;;;;4978459;28;20451;-47
2021/06/09 04:22:22;;;;;;;32.40;29.30;;;13.60;99.90;;;;;;4977276;28;20470;-52
2021/06/09 04:24:48;;;;;;;32.20;29.20;;;13.60;99.90;;;;;;4978348;28;20469;-53
2021/06/09 04:27:18;;;;;;;32.17;29.00;;;13.60;99.90;;;;;;4978374;28;20466;-55
2021/06/09 04:29:46;;;;;;;33.13;30.07;;;13.60;99.90;;;;;;4978165;28;20470;-54
2021/06/09 04:32:13;;;;;;;34.40;31.30;;;13.70;99.90;;;;;;4978759;28;20528;-52
2021/06/09 04:34:47;;;;;;;32.30;28.90;;;13.60;99.90;;;;;;4978378;28;20462;-55
2021/06/09 04:37:17;;;;;;;32.00;28.70;;;13.70;99.90;;;;;;4978560;28;20769;-55
2021/06/09 04:39:45;;;;;;;32.73;29.60;;;13.80;99.90;;;;;;4977694;28;20493;-51
2021/06/09 04:42:12;;;;;;;32.43;29.20;;;13.80;99.90;;;;;;4977842;28;20971;-47
2021/06/09 04:44:41;;;;;;;31.03;28.03;;;13.80;99.90;;;;;;4978328;28;20524;-52
2021/06/09 04:47:10;;;;;;;32.70;29.47;;;13.90;99.90;;;;;;4977868;28;20805;-53
2021/06/09 04:49:38;;;;;;;32.27;28.97;;;13.90;99.90;;;;;;4978282;28;20447;-51
2021/06/09 04:52:10;;;;;;;36.20;32.50;;;14.00;99.90;;;;;;4978348;28;20797;-52
2021/06/09 04:54:40;;;;;;;35.50;31.97;;;14.00;99.90;;;;;;4977816;28;20562;-50
2021/06/09 04:57:10;;;;;;;37.60;34.00;;;14.10;99.90;;;;;;4977601;28;20470;-50
2021/06/09 04:59:37;;;;;;;40.33;36.03;;;14.20;99.90;;;;;;4977994;28;20477;-48
2021/06/09 05:02:04;;;;;;;40.50;36.60;;;14.30;99.90;;;;;;4978257;28;20755;-52
2021/06/09 05:04:32;;;;;;;39.63;35.73;;;14.40;99.90;;;;;;4969089;28;20540;-50
2021/06/09 05:06:59;;;;;;;43.20;38.80;;;14.50;99.90;;;;;;4977437;28;20493;-57
2021/06/09 05:09:26;;;;;;;41.37;37.17;;;14.60;99.90;;;;;;4977528;28;20462;-57
2021/06/09 05:11:58;;;;;;;39.43;35.43;;;14.70;99.90;;;;;;4977973;28;20508;-56
2021/06/09 05:14:31;;;;;;;39.83;35.77;;;14.80;99.90;;;;;;4977256;28;20483;-57
2021/06/09 05:17:01;;;;;;;36.57;33.10;;;14.90;99.90;;;;;;4977548;28;20462;-57
2021/06/09 05:19:31;;;;;;;33.63;30.30;;;15.10;99.90;;;;;;4977770;28;20466;-57
2021/06/09 05:22:04;;;;;;;34.70;31.30;;;15.20;99.90;;;;;;4977687;28;20466;-56
2021/06/09 05:24:33;;;;;;;34.20;31.07;;;15.30;99.90;;;;;;4977498;28;20895;-56
2021/06/09 05:27:00;;;;;;;33.73;30.53;;;15.40;99.90;;;;;;4977496;28;20745;-51
2021/06/09 05:29:29;;;;;;;36.87;33.17;;;15.50;99.90;;;;;;4979219;28;20470;-52
2021/06/09 05:31:56;;;;;;;36.53;32.97;;;15.60;99.90;;;;;;4981404;28;20473;-56
2021/06/09 05:34:24;;;;;;;39.00;35.10;;;15.70;99.90;;;;;;4980989;28;20771;-48
2021/06/09 05:36:51;;;;;;;39.57;35.83;;;15.90;99.90;;;;;;4981958;28;20457;-50
2021/06/09 05:39:19;;;;;;;40.33;36.23;;;16.00;99.90;;;;;;4981185;28;20485;-54
2021/06/09 05:41:49;;;;;;;40.40;36.20;;;16.20;99.90;;;;;;4981564;28;20781;-55
2021/06/09 05:44:17;;;;;;;38.03;34.23;;;16.30;99.90;;;;;;4981825;28;20763;-47
2021/06/09 05:46:44;;;;;;;38.03;34.43;;;16.40;99.90;;;;;;4982087;28;20913;-48
2021/06/09 05:49:25;;;;;;;39.97;36.27;;;16.70;99.90;;;;;;4981628;28;20976;-51
2021/06/09 05:51:53;;;;;;;37.17;33.67;;;16.90;99.90;;;;;;4981234;28;20544;-47
2021/06/09 05:54:21;;;;;;;34.93;31.57;;;17.10;99.90;;;;;;4980356;28;20466;-52
2021/06/09 05:56:48;;;;;;;35.23;31.67;;;17.30;99.90;;;;;;4979635;28;20466;-50
2021/06/09 05:59:16;;;;;;;37.50;34.10;;;17.40;99.90;;;;;;4979793;28;20906;-48
2021/06/09 06:01:44;;;;;;;34.53;31.07;;;17.60;99.90;;;;;;4979819;28;20898;-50
2021/06/09 06:04:12;;;;;;;36.80;32.97;;;17.80;99.90;;;;;;4973494;28;20965;-48
2021/06/09 06:06:39;;;;;;;35.40;32.07;;;18.00;99.90;;;;;;4980175;28;20572;-46
2021/06/09 06:09:06;;;;;;;37.70;34.00;;;18.00;99.90;;;;;;4979573;28;20466;-53
2021/06/09 06:11:37;;;;;;;36.37;32.93;;;18.30;99.90;;;;;;4980509;28;20803;-47
2021/06/09 06:14:08;;;;;;;36.67;33.40;;;18.60;99.90;;;;;;4979846;28;20771;-54
2021/06/09 06:16:34;;;;;;;37.83;34.33;;;18.70;99.90;;;;;;4980567;28;20816;-53
2021/06/09 06:19:01;;;;;;;37.43;33.83;;;19.00;99.90;;;;;;4980048;28;20473;-53
2021/06/09 06:21:28;;;;;;;39.27;35.70;;;19.30;99.90;;;;;;4980037;28;20460;-55
2021/06/09 06:23:56;;;;;;;39.17;35.47;;;19.30;99.90;;;;;;4980765;28;20466;-55
2021/06/09 06:26:24;;;;;;;37.33;33.43;;;19.40;99.90;;;;;;4980551;28;20501;-56
2021/06/09 06:28:53;;;;;;;36.50;33.07;;;19.70;99.90;;;;;;4979971;28;20473;-54
2021/06/09 06:31:23;;;;;;;38.87;35.27;;;19.90;99.90;;;;;;4979884;28;20472;-51
2021/06/09 06:33:52;;;;;;;39.10;35.30;;;20.20;99.90;;;;;;4980239;28;20440;-55
2021/06/09 06:36:23;;;;;;;36.10;32.80;;;20.40;99.90;;;;;;4980149;28;20507;-54
2021/06/09 06:38:52;;;;;;;38.30;34.93;;;20.60;99.90;;;;;;4979462;28;20494;-56
2021/06/09 06:41:22;;;;;;;39.43;35.73;;;20.90;99.90;;;;;;4979395;28;20501;-47
2021/06/09 06:43:50;;;;;;;37.83;34.33;;;21.20;99.90;;;;;;4980090;28;20564;-50
2021/06/09 06:46:19;;;;;;;38.10;34.60;;;21.50;99.90;;;;;;4979679;28;20501;-48
2021/06/09 06:48:48;;;;;;;38.60;35.00;;;21.70;99.90;;;;;;4979437;28;20473;-46
2021/06/09 06:51:16;;;;;;;37.80;34.13;;;21.80;99.90;;;;;;4979649;28;20894;-48
2021/06/09 06:53:48;;;;;;;38.77;35.17;;;22.10;99.90;;;;;;4980058;28;20883;-51
2021/06/09 06:56:17;;;;;;;38.37;34.90;;;22.50;99.90;;;;;;4979426;28;20921;-46
2021/06/09 06:58:50;;;;;;;37.73;34.10;;;22.70;99.90;;;;;;4979717;28;20809;-44
2021/06/09 07:01:19;;;;;;;33.83;30.83;;;22.90;99.90;;;;;;4979636;28;20779;-50
2021/06/09 07:03:46;;;;;;;37.37;33.83;;;23.10;99.90;;;;;;4972315;28;20553;-51
2021/06/09 07:06:15;;;;;;;40.83;36.97;;;23.40;99.90;;;;;;4977614;28;20489;-52
2021/06/09 07:08:43;;;;;;;39.27;35.87;;;23.60;99.90;;;;;;4978406;28;20970;-48
2021/06/09 07:11:14;;;;;;;38.00;34.47;;;23.70;99.90;;;;;;4978867;28;20496;-48
2021/06/09 07:13:41;;;;;;;37.30;34.07;;;23.90;99.90;;;;;;4978900;28;20902;-50
2021/06/09 07:16:10;;;;;;;38.87;35.50;;;24.20;99.90;;;;;;4979124;28;20517;-51
2021/06/09 07:18:43;;;;;;;38.83;35.40;;;24.00;99.90;;;;;;4979861;28;20474;-53
2021/06/09 07:21:10;;;;;;;37.80;34.27;;;23.70;99.90;;;;;;4978917;28;20887;-54
2021/06/09 07:23:36;;;;;;;38.37;34.97;;;23.80;99.90;;;;;;4979072;28;20469;-53
2021/06/09 07:26:06;;;;;;;37.10;33.90;;;24.50;99.90;;;;;;4978771;28;20494;-51
2021/06/09 07:28:36;;;;;;;40.13;36.47;;;24.80;99.90;;;;;;4978859;28;20458;-52
2021/06/09 07:31:05;;;;;;;36.40;33.30;;;25.00;99.90;;;;;;4979033;28;20493;-51
2021/06/09 07:33:32;;;;;;;35.57;32.57;;;25.20;99.90;;;;;;4978923;28;20465;-49
2021/06/09 07:36:05;;;;;;;33.77;30.87;;;25.40;99.90;;;;;;4979433;28;20457;-50
2021/06/09 07:38:42;;;;;;;34.93;31.80;;;24.90;99.90;;;;;;4978596;28;20485;-52
2021/06/09 07:41:11;;;;;;;31.10;28.30;;;24.80;99.90;;;;;;4978727;28;20777;-48
2021/06/09 07:43:41;;;;;;;31.90;29.23;;;24.30;99.90;;;;;;4979059;28;20524;-47
2021/06/09 07:46:13;;;;;;;30.57;27.87;;;24.20;99.90;;;;;;4978845;28;20497;-48
2021/06/09 07:48:40;;;;;;;30.83;28.10;;;24.20;99.90;;;;;;4978743;28;20468;-45
2021/06/09 07:51:13;;;;;;;30.50;28.00;;;24.80;99.90;;;;;;4977966;28;20473;-51
2021/06/09 07:53:41;;;;;;;29.90;27.43;;;24.80;99.90;;;;;;4978776;28;20473;-47
2021/06/09 07:56:11;;;;;;;30.60;28.00;;;25.30;99.90;;;;;;4979268;28;20520;-53
2021/06/09 07:58:38;;;;;;;32.17;29.60;;;26.00;99.90;;;;;;4978729;28;20504;-48
2021/06/09 08:01:05;;;;;;;32.10;29.40;;;26.40;97.00;;;;;;4978349;28;20816;-54
2021/06/09 08:03:36;;;;;;;30.70;28.30;;;26.10;95.50;;;;;;4973398;28;20782;-54
2021/06/09 08:06:07;;;;;;;28.63;26.33;;;25.50;98.00;;;;;;4958762;28;20495;-51
2021/06/09 08:08:35;;;;;;;27.13;24.90;;;26.20;99.90;;;;;;4959067;29;20895;-51
2021/06/09 08:11:02;;;;;;;25.90;23.70;;;26.50;93.40;;;;;;4958820;29;20578;-54
2021/06/09 08:13:31;;;;;;;28.17;25.63;;;26.40;95.20;;;;;;4958279;28;20478;-55
2021/06/09 08:16:01;;;;;;;27.23;25.10;;;26.50;95.90;;;;;;4958846;29;20473;-51
2021/06/09 08:18:30;;;;;;;27.10;25.03;;;25.80;97.70;;;;;;4957304;29;20930;-55
2021/06/09 08:21:11;;;;;;;28.27;26.07;;;25.80;98.20;;;;;;4958157;29;20466;-55
2021/06/09 08:23:41;;;;;;;30.37;27.90;;;25.50;98.00;;;;;;4959407;29;20872;-51
2021/06/09 08:26:08;;;;;;;30.93;28.53;;;25.30;99.90;;;;;;4959246;29;20494;-54
2021/06/09 08:28:36;;;;;;;28.50;26.20;;;25.50;97.90;;;;;;4958823;29;20462;-49
2021/06/09 08:31:03;;;;;;;28.67;26.27;;;25.80;98.70;;;;;;4958546;29;20533;-55
2021/06/09 08:33:30;;;;;;;31.40;28.27;;;25.20;98.40;;;;;;4958617;29;20471;-51
2021/06/09 08:35:57;;;;;;;28.07;25.77;;;25.20;99.90;;;;;;4959309;29;20466;-53
2021/06/09 08:38:26;;;;;;;26.03;23.93;;;26.20;99.90;;;;;;4958277;29;20533;-48
2021/06/09 08:40:54;;;;;;;28.40;25.90;;;27.10;99.10;;;;;;4958897;29;20819;-48
2021/06/09 08:43:24;;;;;;;26.20;24.10;;;27.50;91.70;;;;;;4958718;29;20527;-49
2021/06/09 08:45:51;;;;;;;24.63;22.70;;;27.50;92.10;;;;;;4958868;29;20494;-52
2021/06/09 08:48:19;;;;;;;27.60;25.40;;;26.40;84.10;;;;;;4958975;29;20521;-52
2021/06/09 08:50:48;;;;;;;27.80;25.60;;;25.40;93.10;;;;;;4958475;29;20477;-54
2021/06/09 08:53:18;;;;;;;23.57;21.70;;;24.70;97.70;;;;;;4958884;29;20758;-46
2021/06/09 08:55:50;;;;;;;25.63;23.63;;;24.80;98.80;;;;;;4959135;29;20481;-45
2021/06/09 08:58:18;;;;;;;25.70;23.70;;;25.00;97.30;;;;;;4958471;29;20452;-45
2021/06/09 09:00:45;;;;;;;26.33;24.20;;;26.30;96.30;;;;;;4958327;29;20463;-52
2021/06/09 09:03:13;;;;;;;24.93;22.83;;;27.00;90.90;;;;;;4959958;28;20568;-54
2021/06/09 09:05:40;;;;;;;26.80;24.80;;;26.70;91.20;;;;;;4978707;28;20903;-53
2021/06/09 09:08:08;;;;;;;27.50;25.13;;;26.60;91.60;;;;;;4981572;28;20465;-54
2021/06/09 09:10:37;;;;;;;28.90;26.20;;;25.80;92.50;;;;;;4961838;29;20467;-54
2021/06/09 09:13:13;;;;;;;29.73;27.33;;;24.70;97.20;;;;;;4967697;28;20787;-55
2021/06/09 09:15:41;;;;;;;30.37;27.97;;;24.50;99.90;;;;;;4981739;28;20471;-53
2021/06/09 09:18:10;;;;;;;25.23;23.13;;;25.70;99.90;;;;;;4982177;28;20468;-55
2021/06/09 09:20:40;;;;;;;30.53;27.47;;;25.50;96.10;;;;;;4981214;28;20466;-53
2021/06/09 09:23:19;;;;;;;26.83;24.73;;;25.20;95.20;;;;;;4980708;28;20465;-49
2021/06/09 09:25:46;;;;;;;23.77;21.73;;;25.10;97.20;;;;;;4980571;28;20555;-52
2021/06/09 09:28:24;;;;;;;22.83;20.90;;;24.40;98.40;;;;;;4981567;28;20473;-55
2021/06/09 09:30:52;;;;;;;25.53;23.40;;;24.00;99.90;;;;;;4981440;28;20472;-55
2021/06/09 09:33:23;;;;;;;25.07;23.13;;;23.90;99.90;;;;;;4981100;28;20461;-55
2021/06/09 09:35:52;;;;;;;25.87;23.73;;;24.40;99.90;;;;;;4980661;28;20469;-54
2021/06/09 09:38:22;;;;;;;24.80;22.60;;;24.40;99.90;;;;;;4979860;28;20485;-50
2021/06/09 09:41:04;;;;;;;25.00;23.00;;;25.30;99.90;;;;;;4980487;28;20477;-54
2021/06/09 09:43:51;;;;;;;21.40;19.43;;;25.80;95.70;;;;;;4979967;28;20476;-54
2021/06/09 09:46:21;;;;;;;22.10;20.50;;;26.70;94.80;;;;;;4979940;28;20497;-55
2021/06/09 09:49:09;;;;;;;23.43;21.47;;;27.10;86.60;;;;;;4979874;28;20466;-54
2021/06/09 09:51:56;;;;;;;21.70;20.10;;;28.00;76.40;;;;;;4980917;28;20547;-52
2021/06/09 09:54:27;;;;;;;23.27;21.50;;;28.00;70.10;;;;;;4981447;28;20560;-52
2021/06/09 09:56:54;;;;;;;25.60;23.77;;;27.40;72.70;;;;;;4981071;28;20888;-48
2021/06/09 09:59:23;;;;;;;23.63;21.93;;;27.80;79.30;;;;;;4980119;28;20610;-55
2021/06/09 10:01:55;;;;;;;22.17;20.67;;;29.20;69.60;;;;;;4980676;28;20444;-57
2021/06/09 10:04:24;;;;;;;23.17;21.57;;;29.20;66.30;;;;;;4971794;28;20901;-55
2021/06/09 10:06:57;;;;;;;25.33;23.50;;;28.50;65.30;;;;;;4978834;28;20580;-55
2021/06/09 10:09:27;;;;;;;26.20;24.23;;;28.30;66.90;;;;;;4978387;28;20469;-53
2021/06/09 10:11:57;;;;;;;25.30;23.50;;;28.00;65.90;;;;;;4976508;28;20469;-55
2021/06/09 10:14:27;;;;;;;23.47;21.87;;;28.30;71.30;;;;;;4978534;28;20521;-53
2021/06/09 10:17:00;;;;;;;27.50;25.60;;;28.80;64.60;;;;;;4976042;28;20835;-56
2021/06/09 10:19:31;;;;;;;25.57;23.93;;;28.40;60.90;;;;;;4978533;28;20496;-56
2021/06/09 10:22:04;;;;;;;26.17;24.20;;;29.40;70.60;;;;;;4978537;28;20899;-50
2021/06/09 10:24:42;;;;;;;26.43;24.53;;;30.50;62.20;;;;;;4978852;28;20480;-50
2021/06/09 10:27:09;;;;;;;25.90;24.10;;;30.30;59.30;;;;;;4979523;28;20505;-55
2021/06/09 10:29:36;;;;;;;29.03;26.93;;;29.80;66.30;;;;;;4980316;28;20461;-54
2021/06/09 10:32:07;;;;;;;28.73;26.63;;;29.10;59.20;;;;;;4979474;28;20523;-56
2021/06/09 10:34:38;;;;;;;26.87;25.07;;;29.80;59.50;;;;;;4979982;28;20468;-55
2021/06/09 10:37:07;;;;;;;28.50;26.60;;;29.50;60.10;;;;;;4978754;28;20462;-57
2021/06/09 10:39:37;;;;;;;26.23;24.23;;;27.90;60.90;;;;;;4978414;28;20493;-56
2021/06/09 10:42:06;;;;;;;30.03;27.73;;;27.20;65.00;;;;;;4978038;28;20474;-57
2021/06/09 10:44:36;;;;;;;28.50;26.40;;;26.60;67.40;;;;;;4978507;28;20768;-56
2021/06/09 10:47:09;;;;;;;26.83;24.83;;;26.30;66.40;;;;;;4977839;28;20496;-56
2021/06/09 10:49:38;;;;;;;26.13;24.30;;;26.90;67.00;;;;;;4975409;28;20461;-55
2021/06/09 10:52:08;;;;;;;27.70;25.87;;;27.80;59.70;;;;;;4977963;28;20924;-55
2021/06/09 10:54:35;;;;;;;30.13;27.80;;;28.80;63.90;;;;;;4978266;28;20470;-56
2021/06/09 10:57:06;;;;;;;30.90;28.60;;;30.20;59.20;;;;;;4978219;28;20465;-56
2021/06/09 10:59:33;;;;;;;29.73;27.60;;;30.90;55.70;;;;;;4979563;28;20469;-57
2021/06/09 11:02:05;;;;;;;25.67;23.77;;;30.40;54.90;;;;;;4978288;28;20466;-54
2021/06/09 11:04:37;;;;;;;27.70;25.60;;;30.30;59.40;;;;;;4970753;28;20482;-54
2021/06/09 11:07:06;;;;;;;26.67;24.77;;;30.60;60.80;;;;;;4979066;28;20497;-55
2021/06/09 11:09:33;;;;;;;26.23;24.10;;;29.90;57.60;;;;;;4979224;28;20555;-57
2021/06/09 11:12:22;;;;;;;29.30;27.10;;;28.60;59.90;;;;;;4978588;28;20462;-53
2021/06/09 11:14:51;;;;;;;30.20;28.00;;;28.00;61.50;;;;;;4976043;28;20529;-56
2021/06/09 11:17:36;;;;;;;30.77;28.57;;;28.20;60.90;;;;;;4959773;29;20469;-57
2021/06/09 11:20:23;;;;;;;27.80;25.80;;;28.10;60.90;;;;;;4967731;28;20469;-57
2021/06/09 11:22:52;;;;;;;28.80;26.80;;;28.10;64.20;;;;;;4978717;28;20436;-55
2021/06/09 11:25:24;;;;;;;26.17;24.43;;;28.80;57.80;;;;;;4979218;28;20469;-50
2021/06/09 11:28:01;;;;;;;25.83;24.10;;;28.80;58.40;;;;;;4978230;28;20506;-52
2021/06/09 11:30:53;;;;;;;30.67;28.37;;;29.50;59.60;;;;;;4979084;28;20469;-55
2021/06/09 12:11:40;;;;;;;35.20;32.50;;;29.00;61.50;;;;;;4759464;23;20498;-57
2021/06/09 12:14:23;;;;;;;33.77;31.07;;;29.20;55.60;;;;;;4978496;28;20440;-57
2021/06/09 12:16:51;;;;;;;34.77;31.97;;;29.40;55.70;;;;;;4978093;28;20497;-57
2021/06/09 12:19:33;;;;;;;32.53;30.17;;;30.10;55.60;;;;;;4978643;28;20481;-57
2021/06/09 12:22:07;;;;;;;34.10;31.53;;;30.80;59.70;;;;;;4978123;28;20516;-57
2021/06/09 12:24:36;;;;;;;33.93;31.30;;;30.40;54.80;;;;;;4978593;28;20469;-57
2021/06/09 12:27:09;;;;;;;29.30;27.10;;;30.60;56.10;;;;;;4978112;28;20469;-54
2021/06/09 12:29:41;;;;;;;32.63;30.30;;;30.10;53.10;;;;;;4978435;28;20469;-57
2021/06/09 12:32:33;;;;;;;31.97;29.50;;;29.90;52.50;;;;;;4978270;28;20927;-57
2021/06/09 12:35:05;;;;;;;30.00;27.80;;;30.10;53.70;;;;;;4960169;28;20803;-56
2021/06/09 12:37:36;;;;;;;31.20;28.90;;;29.70;53.10;;;;;;4978425;28;20498;-57
2021/06/09 12:40:08;;;;;;;27.07;25.27;;;29.20;53.60;;;;;;4982151;28;20474;-58
2021/06/09 12:42:38;;;;;;;25.30;23.50;;;28.50;54.50;;;;;;4982714;28;20458;-56
2021/06/09 12:45:07;;;;;;;29.77;27.27;;;28.30;55.80;;;;;;4982102;28;20560;-57
2021/06/09 12:47:35;;;;;;;28.83;26.83;;;28.40;54.50;;;;;;4981664;28;20465;-56
2021/06/09 12:50:10;;;;;;;29.13;27.07;;;28.90;54.40;;;;;;4982319;28;20466;-58
2021/06/09 12:52:37;;;;;;;26.67;24.77;;;29.40;51.70;;;;;;4981922;28;20471;-56
2021/06/09 12:55:09;;;;;;;26.57;24.73;;;29.00;51.90;;;;;;4981687;28;20685;-53
2021/06/09 12:57:38;;;;;;;27.30;25.20;;;28.90;52.10;;;;;;4981843;28;20537;-57
2021/06/09 13:00:33;;;;;;;24.40;22.40;;;29.10;54.00;;;;;;4982159;28;20470;-56
2021/06/09 13:03:23;;;;;;;24.63;22.83;;;29.70;53.30;;;;;;4976535;28;20873;-57
2021/06/09 13:06:01;;;;;;;23.53;21.70;;;30.80;51.00;;;;;;4978841;28;20473;-58
2021/06/09 13:08:30;;;;;;;23.13;21.43;;;31.10;51.80;;;;;;4980861;28;20464;-57
2021/06/09 13:11:10;;;;;;;25.40;23.30;;;29.80;51.60;;;;;;4981241;28;20529;-54
2021/06/09 13:13:40;;;;;;;23.63;21.97;;;27.90;53.50;;;;;;4981869;28;20477;-51
2021/06/09 13:16:07;;;;;;;24.27;22.57;;;27.50;55.30;;;;;;4981437;28;20466;-55
2021/06/09 13:18:48;;;;;;;24.10;22.27;;;27.20;56.70;;;;;;4981224;28;20993;-56
2021/06/09 13:21:29;;;;;;;23.73;22.13;;;27.20;58.70;;;;;;4981882;28;20458;-56
2021/06/09 13:24:16;;;;;;;26.43;24.43;;;27.60;57.70;;;;;;4981126;28;20465;-50
2021/06/09 13:26:48;;;;;;;23.97;22.30;;;26.90;58.70;;;;;;4981701;28;20508;-54
2021/06/09 13:29:19;;;;;;;25.27;23.47;;;26.30;59.40;;;;;;4981058;28;20476;-55
2021/06/09 13:31:47;;;;;;;23.70;22.00;;;25.90;59.40;;;;;;4981787;28;20497;-52
2021/06/09 13:34:21;;;;;;;27.50;25.50;;;25.80;61.00;;;;;;4981379;28;20894;-53
2021/06/09 13:36:56;;;;;;;23.80;21.83;;;25.70;60.00;;;;;;4980729;28;20504;-53
2021/06/09 13:39:25;;;;;;;22.43;20.73;;;25.80;61.10;;;;;;4980981;28;20465;-49
2021/06/09 13:41:55;;;;;;;23.27;21.43;;;25.70;60.80;;;;;;4981256;28;20492;-54
2021/06/09 13:44:35;;;;;;;23.93;22.10;;;26.10;61.70;;;;;;4980714;28;20465;-52
2021/06/09 13:47:03;;;;;;;21.47;20.00;;;26.30;60.20;;;;;;4980860;28;20503;-53
2021/06/09 13:49:31;;;;;;;22.47;20.70;;;27.30;59.60;;;;;;4979476;28;20469;-54
2021/06/09 13:51:58;;;;;;;22.07;20.47;;;28.50;57.30;;;;;;4980972;28;20472;-53
2021/06/09 13:54:32;;;;;;;22.87;21.27;;;29.00;54.30;;;;;;4980997;28;20476;-52
2021/06/09 13:57:13;;;;;;;21.50;20.00;;;29.10;54.60;;;;;;4980633;28;20497;-52
2021/06/09 13:59:53;;;;;;;25.40;23.13;;;29.60;54.20;;;;;;4981031;28;20470;-56
2021/06/09 14:02:28;;;;;;;19.70;18.10;;;28.40;54.40;;;;;;4980300;28;20898;-54
2021/06/09 14:05:04;;;;;;;20.13;18.40;;;28.30;55.40;;;;;;4973676;28;20480;-55
2021/06/09 14:07:38;;;;;;;23.33;21.63;;;27.80;54.40;;;;;;4980242;28;20465;-51
2021/06/09 14:10:07;;;;;;;22.30;20.63;;;26.90;55.10;;;;;;4979535;28;20507;-57
2021/06/09 14:12:38;;;;;;;21.93;20.17;;;26.60;56.40;;;;;;4979689;28;20454;-54
2021/06/09 14:15:12;;;;;;;20.70;19.20;;;27.10;56.90;;;;;;4979117;28;20462;-50
2021/06/09 14:17:39;;;;;;;19.30;18.00;;;27.70;55.50;;;;;;4979432;28;20504;-53
2021/06/09 14:20:08;;;;;;;20.00;18.60;;;28.00;55.40;;;;;;4979375;28;20465;-49
2021/06/09 14:22:37;;;;;;;19.33;17.93;;;27.70;56.50;;;;;;4979125;28;20466;-56
2021/06/09 14:25:11;;;;;;;22.60;20.90;;;27.60;57.80;;;;;;4978890;28;20466;-53
2021/06/09 14:28:00;;;;;;;21.13;19.67;;;27.70;56.40;;;;;;4979309;28;20528;-52
2021/06/09 14:30:34;;;;;;;23.07;21.37;;;27.90;56.20;;;;;;4978968;28;20914;-53
2021/06/09 14:33:13;;;;;;;20.40;19.10;;;27.90;55.20;;;;;;4979682;28;20527;-53
2021/06/09 14:35:46;;;;;;;21.77;20.27;;;28.00;55.00;;;;;;4978809;28;20480;-49
2021/06/09 14:38:18;;;;;;;21.77;20.23;;;28.00;55.20;;;;;;4979210;28;20492;-50